createdAt,value
2023-03-18T00:00:16.988Z,-0.55
2023-03-18T00:01:20.149Z,-0.55
2023-03-18T00:02:25.915Z,-0.57
2023-03-18T00:03:35.234Z,-0.58
2023-03-18T00:04:38.219Z,-0.60
2023-03-18T00:05:43.806Z,-0.59
2023-03-18T00:06:49.380Z,-0.59
2023-03-18T00:07:54.239Z,-0.57
2023-03-18T00:08:58.376Z,-0.58
2023-03-18T00:10:10.495Z,-0.58
2023-03-18T00:11:16.177Z,-0.62
2023-03-18T00:12:19.374Z,-0.59
2023-03-18T00:13:23.340Z,-0.64
2023-03-18T00:14:31.877Z,-0.65
2023-03-18T00:15:35.632Z,-0.65
2023-03-18T00:16:43.365Z,-0.65
2023-03-18T00:17:56.428Z,-0.63
2023-03-18T00:18:59.296Z,-0.64
2023-03-18T00:20:07.198Z,-0.61
2023-03-18T00:21:13.909Z,-0.64
2023-03-18T00:22:27.235Z,-0.65
2023-03-18T00:23:32.339Z,-0.65
2023-03-18T00:24:36.180Z,-0.65
2023-03-18T00:25:42.977Z,-0.65
2023-03-18T00:26:47.412Z,-0.69
2023-03-18T00:27:54.131Z,-0.67
2023-03-18T00:29:00.275Z,-0.71
2023-03-18T00:30:06.269Z,-0.71
2023-03-18T00:31:13.335Z,-0.66
2023-03-18T00:32:20.810Z,-0.68
2023-03-18T00:33:24.852Z,-0.71
2023-03-18T00:34:30.276Z,-0.69
2023-03-18T00:35:41.585Z,-0.70
2023-03-18T00:36:58.646Z,-0.66
2023-03-18T00:38:05.376Z,-0.68
2023-03-18T00:39:11.769Z,-0.71
2023-03-18T00:42:21.250Z,-0.80
2023-03-18T00:43:53.431Z,-0.82
2023-03-18T00:45:30.517Z,-0.81
2023-03-18T00:47:07.950Z,-0.80
2023-03-18T00:48:16.519Z,-0.81
2023-03-18T00:49:53.618Z,-0.77
2023-03-18T00:50:58.972Z,-0.79
2023-03-18T00:52:32.436Z,-0.77
2023-03-18T00:53:43.320Z,-0.79
2023-03-18T00:54:51.696Z,-0.80
2023-03-18T00:56:07.106Z,-0.85
2023-03-18T00:57:29.975Z,-0.84
2023-03-18T00:59:04.232Z,-0.86
2023-03-18T01:00:16.164Z,-0.87
2023-03-18T01:01:27.816Z,-0.86
2023-03-18T01:02:44.746Z,-0.80
2023-03-18T01:03:52.050Z,-0.86
2023-03-18T01:04:57.315Z,-0.85
2023-03-18T01:06:02.323Z,-0.88
2023-03-18T01:07:05.832Z,-0.90
2023-03-18T01:08:08.629Z,-0.89
2023-03-18T01:09:11.990Z,-0.89
2023-03-18T01:10:16.480Z,-0.94
2023-03-18T01:11:23.677Z,-0.90
2023-03-18T01:12:25.881Z,-0.94
2023-03-18T01:13:29.244Z,-0.88
2023-03-18T01:14:32.612Z,-0.94
2023-03-18T01:15:34.971Z,-0.93
2023-03-18T01:16:38.728Z,-0.99
2023-03-18T01:17:41.157Z,-0.95
2023-03-18T01:18:43.940Z,-0.98
2023-03-18T01:19:49.326Z,-0.94
2023-03-18T01:20:52.010Z,-0.94
2023-03-18T01:21:56.975Z,-1.01
2023-03-18T01:23:01.084Z,-1.00
2023-03-18T01:24:04.499Z,-1.00
2023-03-18T01:25:10.156Z,-0.98
2023-03-18T01:26:14.183Z,-1.03
2023-03-18T01:27:19.871Z,-1.13
2023-03-18T01:28:23.295Z,-1.06
2023-03-18T01:29:25.686Z,-1.10
2023-03-18T01:30:31.869Z,-1.11
2023-03-18T01:31:35.943Z,-1.05
2023-03-18T01:32:45.156Z,-1.10
2023-03-18T01:33:48.148Z,-1.10
2023-03-18T01:34:54.344Z,-1.11
2023-03-18T01:36:00.461Z,-1.14
2023-03-18T01:37:05.641Z,-1.16
2023-03-18T01:38:16.125Z,-1.18
2023-03-18T01:39:18.374Z,-1.21
2023-03-18T01:40:26.614Z,-1.17
2023-03-18T01:41:31.410Z,-1.21
2023-03-18T01:42:36.698Z,-1.11
2023-03-18T01:43:43.323Z,-1.18
2023-03-18T01:44:47.347Z,-1.15
2023-03-18T01:45:53.784Z,-1.23
2023-03-18T01:46:56.984Z,-1.19
2023-03-18T01:48:01.933Z,-1.18
2023-03-18T01:49:14.032Z,-1.19
2023-03-18T01:50:22.535Z,-1.15
2023-03-18T01:51:29.494Z,-1.15
2023-03-18T01:52:34.196Z,-1.17
2023-03-18T01:53:42.695Z,-1.19
2023-03-18T01:55:12.096Z,-1.21
2023-03-18T01:56:18.181Z,-1.16
2023-03-18T01:57:22.549Z,-1.30
2023-03-18T01:58:40.187Z,-1.25
2023-03-18T01:59:47.402Z,-1.26
2023-03-18T02:01:26.614Z,-1.29
2023-03-18T02:02:31.257Z,-1.32
2023-03-18T02:03:37.988Z,-1.29
2023-03-18T02:04:48.054Z,-1.32
2023-03-18T02:05:54.299Z,-1.36
2023-03-18T02:07:00.341Z,-1.35
2023-03-18T02:08:04.610Z,-1.41
2023-03-18T02:09:10.001Z,-1.38
2023-03-18T02:10:16.293Z,-1.41
2023-03-18T02:11:19.240Z,-1.36
2023-03-18T02:12:26.712Z,-1.44
2023-03-18T02:13:34.952Z,-1.53
2023-03-18T02:14:37.676Z,-1.50
2023-03-18T02:15:57.148Z,-1.51
2023-03-18T02:17:05.585Z,-1.51
2023-03-18T02:18:21.510Z,-1.53
2023-03-18T02:19:36.362Z,-1.49
2023-03-18T02:21:03.814Z,-1.54
2023-03-18T02:22:40.091Z,-1.52
2023-03-18T02:24:03.152Z,-1.52
2023-03-18T02:25:37.006Z,-1.55
2023-03-18T02:26:59.247Z,-1.59
2023-03-18T02:28:12.668Z,-1.58
2023-03-18T02:29:19.734Z,-1.51
2023-03-18T02:30:40.496Z,-1.52
2023-03-18T02:31:45.327Z,-1.54
2023-03-18T02:32:54.375Z,-1.52
2023-03-18T02:33:57.826Z,-1.55
2023-03-18T02:35:04.167Z,-1.57
2023-03-18T02:36:13.668Z,-1.53
2023-03-18T02:37:18.198Z,-1.59
2023-03-18T02:38:22.332Z,-1.57
2023-03-18T02:39:26.152Z,-1.54
2023-03-18T02:40:34.790Z,-1.58
2023-03-18T02:41:40.844Z,-1.61
2023-03-18T02:42:44.457Z,-1.63
2023-03-18T02:43:49.195Z,-1.63
2023-03-18T02:44:52.381Z,-1.61
2023-03-18T02:46:52.724Z,-1.63
2023-03-18T02:47:56.412Z,-1.62
2023-03-18T02:49:01.975Z,-1.62
2023-03-18T02:50:12.226Z,-1.61
2023-03-18T02:51:18.860Z,-1.59
2023-03-18T02:52:23.525Z,-1.61
2023-03-18T02:53:30.451Z,-1.59
2023-03-18T02:54:33.259Z,-1.56
2023-03-18T02:55:38.655Z,-1.59
2023-03-18T02:56:43.663Z,-1.55
2023-03-18T02:57:47.295Z,-1.60
2023-03-18T02:58:51.642Z,-1.57
2023-03-18T02:59:54.745Z,-1.62
2023-03-18T03:00:57.785Z,-1.63
2023-03-18T03:02:02.248Z,-1.64
2023-03-18T03:03:06.402Z,-1.62
2023-03-18T03:04:11.244Z,-1.64
2023-03-18T03:05:13.919Z,-1.61
2023-03-18T03:06:17.122Z,-1.62
2023-03-18T03:07:20.750Z,-1.58
2023-03-18T03:08:29.656Z,-1.64
2023-03-18T03:09:31.874Z,-1.62
2023-03-18T03:10:35.577Z,-1.60
2023-03-18T03:11:38.112Z,-1.59
2023-03-18T03:12:47.879Z,-1.58
2023-03-18T03:13:53.708Z,-1.62
2023-03-18T03:14:56.827Z,-1.60
2023-03-18T03:16:03.190Z,-1.60
2023-03-18T03:17:07.209Z,-1.62
2023-03-18T03:18:12.237Z,-1.58
2023-03-18T03:19:14.856Z,-1.62
2023-03-18T03:20:18.363Z,-1.56
2023-03-18T03:21:21.727Z,-1.59
2023-03-18T03:22:24.109Z,-1.61
2023-03-18T03:23:28.648Z,-1.58
2023-03-18T03:24:35.432Z,-1.63
2023-03-18T03:25:39.093Z,-1.66
2023-03-18T03:26:42.266Z,-1.60
2023-03-18T03:27:44.821Z,-1.59
2023-03-18T03:28:48.131Z,-1.62
2023-03-18T03:29:50.685Z,-1.61
2023-03-18T03:30:56.220Z,-1.60
2023-03-18T03:31:58.562Z,-1.62
2023-03-18T03:33:01.746Z,-1.63
2023-03-18T03:34:05.571Z,-1.63
2023-03-18T03:35:15.863Z,-1.70
2023-03-18T03:36:19.118Z,-1.66
2023-03-18T03:37:22.095Z,-1.70
2023-03-18T03:38:24.539Z,-1.67
2023-03-18T03:39:33.205Z,-1.63
2023-03-18T03:40:35.722Z,-1.62
2023-03-18T03:41:40.494Z,-1.63
2023-03-18T03:42:45.258Z,-1.63
2023-03-18T03:43:47.730Z,-1.63
2023-03-18T03:44:50.544Z,-1.62
2023-03-18T03:45:52.879Z,-1.63
2023-03-18T03:46:56.435Z,-1.58
2023-03-18T03:48:00.326Z,-1.60
2023-03-18T03:49:02.772Z,-1.56
2023-03-18T03:50:07.357Z,-1.59
2023-03-18T03:51:09.934Z,-1.61
2023-03-18T03:52:12.456Z,-1.57
2023-03-18T03:53:17.452Z,-1.58
2023-03-18T03:54:21.217Z,-1.60
2023-03-18T03:55:24.004Z,-1.61
2023-03-18T03:56:28.440Z,-1.51
2023-03-18T03:57:33.143Z,-1.47
2023-03-18T03:58:36.364Z,-1.46
2023-03-18T03:59:40.625Z,-1.52
2023-03-18T04:00:56.090Z,-1.51
2023-03-18T04:01:58.351Z,-1.47
2023-03-18T04:03:02.417Z,-1.50
2023-03-18T04:04:09.477Z,-1.42
2023-03-18T04:05:16.108Z,-1.35
2023-03-18T04:06:20.802Z,-1.38
2023-03-18T04:07:32.729Z,-1.39
2023-03-18T04:08:35.671Z,-1.37
2023-03-18T04:09:41.380Z,-1.36
2023-03-18T04:10:43.865Z,-1.29
2023-03-18T04:11:48.817Z,-1.35
2023-03-18T04:12:53.384Z,-1.41
2023-03-18T04:13:56.225Z,-1.27
2023-03-18T04:14:59.383Z,-1.23
2023-03-18T04:16:03.206Z,-1.27
2023-03-18T04:17:11.669Z,-1.28
2023-03-18T04:18:17.390Z,-1.30
2023-03-18T04:19:23.117Z,-1.30
2023-03-18T04:20:27.788Z,-1.29
2023-03-18T04:21:30.995Z,-1.18
2023-03-18T04:22:35.773Z,-1.28
2023-03-18T04:23:41.376Z,-1.35
2023-03-18T04:24:49.068Z,-1.23
2023-03-18T04:25:54.466Z,-1.17
2023-03-18T04:26:56.943Z,-1.11
2023-03-18T04:28:00.278Z,-1.08
2023-03-18T04:29:04.953Z,-1.07
2023-03-18T04:30:10.106Z,-1.09
2023-03-18T04:31:24.128Z,-1.03
2023-03-18T04:32:26.698Z,-1.13
2023-03-18T04:33:29.938Z,-0.99
2023-03-18T04:34:33.087Z,-0.97
2023-03-18T04:35:35.859Z,-0.92
2023-03-18T04:36:39.535Z,-0.89
2023-03-18T04:37:46.775Z,-0.86
2023-03-18T04:38:52.446Z,-0.81
2023-03-18T04:40:00.660Z,-0.77
2023-03-18T04:41:03.031Z,-0.70
2023-03-18T04:42:05.867Z,-0.38
2023-03-18T04:43:10.300Z,0.36
2023-03-18T04:44:14.984Z,1.18
2023-03-18T04:45:27.592Z,2.77
2023-03-18T04:46:40.236Z,3.67
2023-03-18T04:47:51.254Z,4.49
2023-03-18T04:48:55.407Z,5.21
2023-03-18T04:50:08.800Z,5.75
2023-03-18T04:51:23.581Z,6.03
2023-03-18T04:52:30.401Z,6.46
2023-03-18T04:53:46.763Z,6.49
2023-03-18T04:54:53.140Z,6.64
2023-03-18T04:56:27.588Z,7.10
2023-03-18T04:57:32.408Z,6.86
2023-03-18T04:58:45.411Z,7.67
2023-03-18T05:00:03.681Z,7.83
2023-03-18T05:01:07.545Z,8.31
2023-03-18T05:02:17.001Z,8.72
2023-03-18T05:03:25.677Z,8.37
2023-03-18T05:04:55.506Z,8.87
2023-03-18T05:05:59.919Z,9.25
2023-03-18T05:07:17.305Z,9.56
2023-03-18T05:08:30.355Z,11.81
2023-03-18T05:10:00.439Z,11.58
2023-03-18T05:11:05.948Z,12.36
2023-03-18T05:12:15.307Z,12.49
2023-03-18T05:13:29.414Z,11.68
2023-03-18T05:14:38.834Z,10.13
2023-03-18T05:17:06.363Z,13.07
2023-03-18T05:18:24.142Z,11.71
2023-03-18T05:19:37.991Z,11.64
2023-03-18T05:20:52.024Z,12.23
2023-03-18T05:22:05.181Z,12.72
2023-03-18T05:23:22.692Z,14.16
2023-03-18T05:24:35.563Z,13.87
2023-03-18T05:25:51.119Z,14.79
2023-03-18T05:27:07.433Z,14.91
2023-03-18T05:30:09.273Z,14.37
2023-03-18T05:33:28.066Z,13.54
2023-03-18T05:34:54.723Z,13.20
2023-03-18T05:36:21.974Z,12.76
2023-03-18T05:38:28.893Z,12.01
2023-03-18T05:41:23.242Z,10.21
2023-03-18T05:44:45.635Z,7.19
2023-03-18T05:46:02.888Z,7.11
2023-03-18T05:47:57.914Z,6.39
2023-03-18T05:49:09.076Z,5.53
2023-03-18T05:52:18.326Z,5.41
2023-03-18T05:53:35.226Z,4.67
2023-03-18T05:55:01.464Z,4.37
2023-03-18T05:56:15.133Z,4.27
2023-03-18T05:57:30.951Z,4.24
2023-03-18T05:58:40.578Z,4.30
2023-03-18T06:00:07.873Z,3.82
2023-03-18T06:01:24.081Z,3.67
2023-03-18T06:02:29.704Z,3.14
2023-03-18T06:03:33.810Z,3.18
2023-03-18T06:04:47.289Z,3.08
2023-03-18T06:05:51.712Z,3.27
2023-03-18T06:06:58.109Z,3.05
2023-03-18T06:08:10.288Z,2.90
2023-03-18T06:09:16.527Z,2.69
2023-03-18T06:12:40.475Z,2.47
2023-03-18T06:13:44.119Z,2.42
2023-03-18T06:14:50.335Z,2.43
2023-03-18T06:16:03.806Z,2.30
2023-03-18T06:17:41.082Z,2.38
2023-03-18T06:20:19.645Z,2.42
2023-03-18T06:21:24.919Z,2.50
2023-03-18T06:22:37.935Z,2.40
2023-03-18T06:23:50.388Z,2.44
2023-03-18T06:25:01.228Z,2.59
2023-03-18T06:26:09.851Z,2.57
2023-03-18T06:27:20.064Z,2.43
2023-03-18T06:28:29.945Z,2.47
2023-03-18T06:29:37.391Z,3.28
2023-03-18T06:30:52.297Z,4.44
2023-03-18T06:32:01.912Z,5.51
2023-03-18T06:33:08.819Z,6.18
2023-03-18T06:34:21.026Z,7.19
2023-03-18T06:35:30.667Z,7.45
2023-03-18T06:36:36.065Z,9.32
2023-03-18T06:37:44.192Z,9.73
2023-03-18T06:38:47.622Z,9.73
2023-03-18T06:40:28.706Z,10.53
2023-03-18T06:41:39.889Z,11.62
2023-03-18T06:49:20.672Z,12.05
2023-03-18T06:50:35.713Z,13.53
2023-03-18T06:52:20.224Z,13.54
2023-03-18T06:53:41.278Z,13.11
2023-03-18T06:59:13.893Z,14.17
2023-03-18T07:00:25.135Z,13.26
2023-03-18T07:01:38.178Z,13.50
2023-03-18T07:03:20.188Z,14.09
2023-03-18T07:04:30.651Z,15.22
2023-03-18T07:06:05.591Z,15.57
2023-03-18T07:07:14.555Z,16.04
2023-03-18T07:08:18.666Z,15.89
2023-03-18T07:09:23.990Z,16.89
2023-03-18T07:10:32.479Z,14.03
2023-03-18T07:11:48.729Z,14.27
2023-03-18T07:13:03.143Z,14.63
2023-03-18T07:14:12.559Z,15.19
2023-03-18T07:15:22.323Z,15.37
2023-03-18T07:16:37.527Z,16.70
2023-03-18T07:17:44.260Z,17.19
2023-03-18T07:18:54.453Z,17.87
2023-03-18T07:19:58.394Z,16.90
2023-03-18T07:21:03.564Z,14.92
2023-03-18T07:22:05.836Z,12.00
2023-03-18T07:23:08.368Z,13.90
2023-03-18T07:24:11.611Z,14.21
2023-03-18T07:25:23.201Z,14.26
2023-03-18T07:26:28.246Z,15.54
2023-03-18T07:27:37.130Z,14.39
2023-03-18T07:28:40.841Z,14.64
2023-03-18T07:29:43.257Z,15.14
2023-03-18T07:30:45.579Z,14.96
2023-03-18T07:31:48.654Z,13.48
2023-03-18T07:32:51.713Z,13.69
2023-03-18T07:33:53.877Z,14.43
2023-03-18T07:34:57.227Z,13.60
2023-03-18T07:36:01.200Z,12.38
2023-03-18T07:37:04.182Z,12.18
2023-03-18T07:38:06.190Z,11.92
2023-03-18T07:39:10.334Z,13.43
2023-03-18T07:40:14.789Z,13.01
2023-03-18T07:41:16.973Z,12.86
2023-03-18T07:42:19.457Z,12.16
2023-03-18T07:43:21.363Z,12.48
2023-03-18T07:44:24.075Z,11.71
2023-03-18T07:45:29.903Z,12.91
2023-03-18T07:46:32.233Z,13.51
2023-03-18T07:47:34.560Z,13.15
2023-03-18T07:48:36.607Z,14.52
2023-03-18T07:49:38.534Z,15.29
2023-03-18T07:50:41.462Z,14.66
2023-03-18T07:51:43.668Z,14.29
2023-03-18T07:52:45.614Z,13.94
2023-03-18T07:53:48.096Z,14.82
2023-03-18T07:54:51.461Z,13.64
2023-03-18T07:55:54.951Z,14.93
2023-03-18T07:56:57.206Z,15.04
2023-03-18T07:57:59.745Z,14.24
2023-03-18T07:59:01.660Z,16.02
2023-03-18T08:00:06.240Z,15.08
2023-03-18T08:01:18.540Z,15.74
2023-03-18T08:02:21.837Z,15.81
2023-03-18T08:03:24.129Z,16.69
2023-03-18T08:04:29.868Z,16.78
2023-03-18T08:05:32.463Z,16.46
2023-03-18T08:06:34.991Z,13.97
2023-03-18T08:07:38.076Z,14.82
2023-03-18T08:08:42.008Z,13.86
2023-03-18T08:09:44.095Z,13.61
2023-03-18T08:10:48.845Z,13.96
2023-03-18T08:11:53.097Z,14.65
2023-03-18T08:12:54.985Z,13.87
2023-03-18T08:13:56.991Z,14.92
2023-03-18T08:15:00.007Z,14.21
2023-03-18T08:16:02.481Z,13.37
2023-03-18T08:17:04.495Z,12.31
2023-03-18T08:18:09.083Z,13.45
2023-03-18T08:19:12.132Z,13.99
2023-03-18T08:20:15.397Z,13.95
2023-03-18T08:21:20.063Z,14.37
2023-03-18T08:22:24.226Z,14.41
2023-03-18T08:23:26.169Z,12.71
2023-03-18T08:24:28.855Z,12.09
2023-03-18T08:25:32.994Z,13.33
2023-03-18T08:26:43.765Z,13.13
2023-03-18T08:27:45.869Z,13.00
2023-03-18T08:29:20.848Z,13.77
2023-03-18T08:30:40.791Z,13.18
2023-03-18T08:31:44.513Z,12.27
2023-03-18T08:32:49.575Z,13.55
2023-03-18T08:33:54.272Z,14.34
2023-03-18T08:34:57.121Z,13.10
2023-03-18T08:36:12.546Z,13.63
2023-03-18T08:37:19.208Z,14.20
2023-03-18T08:38:24.318Z,11.73
2023-03-18T08:39:37.456Z,13.25
2023-03-18T08:40:50.137Z,12.70
2023-03-18T08:41:58.290Z,12.32
2023-03-18T08:43:00.660Z,13.18
2023-03-18T08:44:07.141Z,13.63
2023-03-18T08:45:11.203Z,13.46
2023-03-18T08:46:21.865Z,13.22
2023-03-18T08:47:56.706Z,13.30
2023-03-18T08:49:04.654Z,13.40
2023-03-18T08:50:19.082Z,13.22
2023-03-18T08:51:33.274Z,13.10
2023-03-18T08:52:49.815Z,11.74
2023-03-18T08:54:04.165Z,13.69
2023-03-18T08:55:49.363Z,12.71
2023-03-18T08:57:01.270Z,12.50
2023-03-18T08:58:14.275Z,12.19
2023-03-18T08:59:21.111Z,12.51
2023-03-18T09:00:41.454Z,11.83
2023-03-18T09:01:50.453Z,12.08
2023-03-18T09:03:06.852Z,11.08
2023-03-18T09:05:49.566Z,10.67
2023-03-18T09:08:41.052Z,10.40
2023-03-18T09:09:51.081Z,10.12
2023-03-18T09:11:22.623Z,10.52
2023-03-18T09:12:48.907Z,10.42
2023-03-18T09:13:58.043Z,9.77
2023-03-18T09:15:04.893Z,9.21
2023-03-18T09:16:09.874Z,9.05
2023-03-18T09:17:13.677Z,9.73
2023-03-18T09:18:25.537Z,10.03
2023-03-18T09:19:36.494Z,9.44
2023-03-18T09:20:51.120Z,9.23
2023-03-18T09:21:59.816Z,9.17
2023-03-18T09:23:09.832Z,9.94
2023-03-18T09:24:14.904Z,9.86
2023-03-18T09:25:26.138Z,10.41
2023-03-18T09:26:33.075Z,9.67
2023-03-18T09:27:39.512Z,9.48
2023-03-18T09:28:43.138Z,9.58
2023-03-18T09:29:47.302Z,9.26
2023-03-18T09:30:57.373Z,8.76
2023-03-18T09:32:03.558Z,8.10
2023-03-18T09:33:22.360Z,8.45
2023-03-18T09:34:27.284Z,8.01
2023-03-18T09:35:40.029Z,8.08
2023-03-18T09:37:00.349Z,8.58
2023-03-18T09:38:16.354Z,8.10
2023-03-18T09:39:26.511Z,8.02
2023-03-18T09:40:33.395Z,7.80
2023-03-18T09:42:00.750Z,7.96
2023-03-18T09:43:34.720Z,7.75
2023-03-18T09:44:42.685Z,7.96
2023-03-18T09:46:11.455Z,8.01
2023-03-18T09:47:36.175Z,7.76
2023-03-18T09:48:51.774Z,7.42
2023-03-18T09:50:29.273Z,7.66
2023-03-18T09:52:31.820Z,7.38
2023-03-18T09:53:51.271Z,7.34
2023-03-18T09:55:05.087Z,7.17
2023-03-18T09:56:16.202Z,7.28
2023-03-18T09:57:48.084Z,6.88
2023-03-18T09:59:09.393Z,6.67
2023-03-18T10:00:40.269Z,6.92
2023-03-18T10:01:47.886Z,6.80
2023-03-18T10:03:00.524Z,6.44
2023-03-18T10:04:23.546Z,6.33
2023-03-18T10:05:35.780Z,6.53
2023-03-18T10:06:43.159Z,6.47
2023-03-18T10:08:02.554Z,6.62
2023-03-18T10:09:24.438Z,6.34
2023-03-18T10:10:39.520Z,6.47
2023-03-18T10:11:47.224Z,6.39
2023-03-18T10:13:07.727Z,6.34
2023-03-18T10:14:28.179Z,6.20
2023-03-18T10:15:48.165Z,6.14
2023-03-18T10:17:17.355Z,6.14
2023-03-18T10:18:32.858Z,5.89
2023-03-18T10:19:46.168Z,6.16
2023-03-18T10:21:05.179Z,6.03
2023-03-18T10:22:28.642Z,6.04
2023-03-18T10:24:00.435Z,6.10
2023-03-18T10:25:27.254Z,6.03
2023-03-18T10:26:41.794Z,6.06
2023-03-18T10:27:57.469Z,5.93
2023-03-18T10:29:11.672Z,6.20
2023-03-18T10:30:31.704Z,6.23
2023-03-18T10:31:56.678Z,6.05
2023-03-18T10:33:18.040Z,6.05
2023-03-18T10:34:23.873Z,6.19
2023-03-18T10:35:33.372Z,6.21
2023-03-18T10:37:06.049Z,6.30
2023-03-18T10:38:32.012Z,6.05
2023-03-18T10:39:38.467Z,6.05
2023-03-18T10:40:44.324Z,5.85
2023-03-18T10:41:51.373Z,6.04
2023-03-18T10:42:56.650Z,5.96
2023-03-18T10:44:04.770Z,5.81
2023-03-18T10:45:35.075Z,6.02
2023-03-18T10:46:38.775Z,6.07
2023-03-18T10:47:48.098Z,5.74
2023-03-18T10:49:11.937Z,5.87
2023-03-18T10:50:39.064Z,5.82
2023-03-18T10:51:56.553Z,5.93
2023-03-18T10:53:16.176Z,5.92
2023-03-18T10:54:28.424Z,5.93
2023-03-18T10:55:38.337Z,5.74
2023-03-18T10:56:43.679Z,5.85
2023-03-18T10:57:49.807Z,5.81
2023-03-18T10:58:54.939Z,5.66
2023-03-18T10:59:57.981Z,5.76
2023-03-18T11:01:01.389Z,5.74
2023-03-18T11:02:17.540Z,5.73
2023-03-18T11:03:44.453Z,5.95
2023-03-18T11:04:58.579Z,5.76
2023-03-18T11:06:04.596Z,5.80
2023-03-18T11:07:15.102Z,5.67
2023-03-18T11:08:36.978Z,5.67
2023-03-18T11:09:42.664Z,5.68
2023-03-18T11:10:49.806Z,5.54
2023-03-18T11:12:05.518Z,5.68
2023-03-18T11:13:07.808Z,5.77
2023-03-18T11:14:21.149Z,5.70
2023-03-18T11:15:25.361Z,5.87
2023-03-18T11:16:45.905Z,5.80
2023-03-18T11:17:50.667Z,5.79
2023-03-18T11:18:55.557Z,5.75
2023-03-18T11:20:08.685Z,5.77
2023-03-18T11:21:14.720Z,5.86
2023-03-18T11:22:24.131Z,6.00
2023-03-18T11:23:49.395Z,5.87
2023-03-18T11:25:14.369Z,5.79
2023-03-18T11:26:30.125Z,5.83
2023-03-18T11:27:41.676Z,5.76
2023-03-18T11:28:45.840Z,5.90
2023-03-18T11:30:01.083Z,5.79
2023-03-18T11:31:06.742Z,5.86
2023-03-18T11:32:25.470Z,5.94
2023-03-18T11:33:38.563Z,5.73
2023-03-18T11:34:42.660Z,5.85
2023-03-18T11:35:58.468Z,5.81
2023-03-18T11:37:06.613Z,5.73
2023-03-18T11:38:18.006Z,5.79
2023-03-18T11:39:22.452Z,5.88
2023-03-18T11:40:28.306Z,5.98
2023-03-18T11:41:30.951Z,5.97
2023-03-18T11:42:34.643Z,6.04
2023-03-18T11:43:39.690Z,5.96
2023-03-18T11:44:43.103Z,6.02
2023-03-18T11:45:56.224Z,5.87
2023-03-18T11:47:24.747Z,5.91
2023-03-18T11:48:38.270Z,5.85
2023-03-18T11:49:45.972Z,5.92
2023-03-18T11:51:19.396Z,5.92
2023-03-18T11:52:53.144Z,5.92
2023-03-18T11:54:20.358Z,6.02
2023-03-18T11:55:44.189Z,6.09
2023-03-18T11:56:58.801Z,6.09
2023-03-18T11:58:16.684Z,6.00
2023-03-18T11:59:28.114Z,6.04
2023-03-18T12:00:46.238Z,5.94
2023-03-18T12:02:08.111Z,5.86
2023-03-18T12:03:21.767Z,5.98
2023-03-18T12:05:02.647Z,5.91
2023-03-18T12:06:25.099Z,6.03
2023-03-18T12:07:44.970Z,6.04
2023-03-18T12:08:55.277Z,6.05
2023-03-18T12:10:20.643Z,6.06
2023-03-18T12:11:56.136Z,5.99
2023-03-18T12:13:51.573Z,6.03
2023-03-18T12:15:39.890Z,5.95
2023-03-18T12:17:21.510Z,6.04
2023-03-18T12:21:10.727Z,5.84
2023-03-18T12:22:50.507Z,5.85
2023-03-18T12:24:53.601Z,6.03
2023-03-18T12:43:53.534Z,5.84
2023-03-18T12:45:52.804Z,5.78
2023-03-18T12:52:39.029Z,5.85
2023-03-18T12:53:58.707Z,5.78
2023-03-18T12:55:41.730Z,5.86
2023-03-18T12:57:16.020Z,5.81
2023-03-18T12:58:58.564Z,5.75
2023-03-18T13:02:44.177Z,5.72
2023-03-18T13:06:54.409Z,5.55
2023-03-18T13:33:02.055Z,5.54
2023-03-18T13:35:22.759Z,5.54
2023-03-18T13:37:51.583Z,5.57
2023-03-18T13:39:24.174Z,5.53
2023-03-18T14:05:40.013Z,5.16
2023-03-18T14:08:04.108Z,5.14
2023-03-18T14:11:24.365Z,5.11
2023-03-18T14:12:31.507Z,5.12
2023-03-18T14:13:35.078Z,5.10
2023-03-18T14:14:54.812Z,5.08
2023-03-18T14:15:59.720Z,5.12
2023-03-18T14:17:04.860Z,5.12
2023-03-18T14:18:38.596Z,5.04
2023-03-18T14:19:46.397Z,5.03
2023-03-18T14:20:54.071Z,5.04
2023-03-18T14:22:35.871Z,4.99
2023-03-18T14:23:43.169Z,5.01
2023-03-18T14:25:08.340Z,4.98
2023-03-18T14:26:21.616Z,5.01
2023-03-18T14:27:27.131Z,5.04
2023-03-18T14:28:45.508Z,4.95
2023-03-18T14:29:53.454Z,5.00
2023-03-18T14:31:38.538Z,4.96
2023-03-18T14:32:43.702Z,4.97
2023-03-18T14:34:20.135Z,4.96
2023-03-18T14:35:29.820Z,4.93
2023-03-18T14:36:53.526Z,4.89
2023-03-18T14:37:56.419Z,4.92
2023-03-18T14:39:06.021Z,4.86
2023-03-18T14:40:17.993Z,4.87
2023-03-18T14:41:28.781Z,4.87
2023-03-18T14:42:57.194Z,4.84
2023-03-18T14:44:03.052Z,4.89
2023-03-18T14:45:28.276Z,4.84
2023-03-18T14:46:36.692Z,4.78
2023-03-18T14:47:54.489Z,4.80
2023-03-18T14:48:56.717Z,4.79
2023-03-18T14:50:05.836Z,4.79
2023-03-18T14:51:22.924Z,4.68
2023-03-18T14:52:39.630Z,4.73
2023-03-18T14:54:21.394Z,4.68
2023-03-18T14:55:43.549Z,4.64
2023-03-18T14:56:56.468Z,4.66
2023-03-18T14:57:58.358Z,4.67
2023-03-18T14:59:02.813Z,4.69
2023-03-18T15:00:24.300Z,4.68
2023-03-18T15:01:41.206Z,4.66
2023-03-18T15:02:45.482Z,4.63
2023-03-18T15:03:50.763Z,4.62
2023-03-18T15:04:56.489Z,4.64
2023-03-18T15:06:02.523Z,4.65
2023-03-18T15:07:09.836Z,4.60
2023-03-18T15:08:22.747Z,4.60
2023-03-18T15:09:33.626Z,4.58
2023-03-18T15:10:36.391Z,4.57
2023-03-18T15:11:47.215Z,4.54
2023-03-18T15:13:01.414Z,4.52
2023-03-18T15:14:03.898Z,4.49
2023-03-18T15:15:21.697Z,4.48
2023-03-18T15:16:32.943Z,4.46
2023-03-18T15:17:49.632Z,4.41
2023-03-18T15:18:56.639Z,4.43
2023-03-18T15:20:02.125Z,4.42
2023-03-18T15:21:05.520Z,4.40
2023-03-18T15:22:10.929Z,4.43
2023-03-18T15:23:20.047Z,4.38
2023-03-18T15:24:27.299Z,4.37
2023-03-18T15:25:32.822Z,4.34
2023-03-18T15:26:48.824Z,4.29
2023-03-18T15:27:50.931Z,4.31
2023-03-18T15:28:56.544Z,4.27
2023-03-18T15:30:01.774Z,4.26
2023-03-18T15:31:07.046Z,4.21
2023-03-18T15:32:29.246Z,4.22
2023-03-18T15:33:38.609Z,4.22
2023-03-18T15:34:43.809Z,4.22
2023-03-18T15:36:08.820Z,4.19
2023-03-18T15:37:33.791Z,4.13
2023-03-18T15:38:35.958Z,4.12
2023-03-18T15:39:39.997Z,4.13
2023-03-18T15:40:44.662Z,4.07
2023-03-18T15:41:50.038Z,4.09
2023-03-18T15:42:58.753Z,4.09
2023-03-18T15:44:16.609Z,4.09
2023-03-18T15:45:21.554Z,4.10
2023-03-18T15:46:33.584Z,4.07
2023-03-18T15:47:35.475Z,4.09
2023-03-18T15:48:55.627Z,4.02
2023-03-18T15:50:00.549Z,4.00
2023-03-18T15:51:05.444Z,4.03
2023-03-18T15:52:08.384Z,4.00
2023-03-18T15:53:18.996Z,4.02
2023-03-18T15:54:30.335Z,3.98
2023-03-18T15:55:47.574Z,3.96
2023-03-18T15:56:52.000Z,3.97
2023-03-18T15:57:57.404Z,3.99
2023-03-18T15:59:16.222Z,3.94
2023-03-18T16:00:19.201Z,3.95
2023-03-18T16:01:21.265Z,3.95
2023-03-18T16:02:23.707Z,3.97
2023-03-18T16:03:29.222Z,3.92
2023-03-18T16:04:34.171Z,3.92
2023-03-18T16:05:37.076Z,3.89
2023-03-18T16:06:40.465Z,3.93
2023-03-18T16:07:42.641Z,3.93
2023-03-18T16:08:46.178Z,3.92
2023-03-18T16:09:48.850Z,3.90
2023-03-18T16:10:53.651Z,3.86
2023-03-18T16:12:05.813Z,3.88
2023-03-18T16:13:17.470Z,3.83
2023-03-18T16:14:22.909Z,3.90
2023-03-18T16:15:32.204Z,3.85
2023-03-18T16:16:43.167Z,3.79
2023-03-18T16:17:45.983Z,3.83
2023-03-18T16:18:48.995Z,3.82
2023-03-18T16:19:55.240Z,3.78
2023-03-18T16:20:57.344Z,3.75
2023-03-18T16:22:00.131Z,3.74
2023-03-18T16:23:02.073Z,3.76
2023-03-18T16:24:04.132Z,3.75
2023-03-18T16:25:09.484Z,3.70
2023-03-18T16:26:18.201Z,3.70
2023-03-18T16:27:36.396Z,3.68
2023-03-18T16:28:38.365Z,3.71
2023-03-18T16:29:40.809Z,3.71
2023-03-18T16:30:42.857Z,3.63
2023-03-18T16:31:46.228Z,3.63
2023-03-18T16:32:48.407Z,3.66
2023-03-18T16:33:52.908Z,3.64
2023-03-18T16:34:56.495Z,3.63
2023-03-18T16:36:01.644Z,3.62
2023-03-18T16:37:03.684Z,3.58
2023-03-18T16:38:06.605Z,3.54
2023-03-18T16:39:17.578Z,3.53
2023-03-18T16:40:24.991Z,3.52
2023-03-18T16:41:27.221Z,3.48
2023-03-18T16:42:29.182Z,3.49
2023-03-18T16:43:32.289Z,3.48
2023-03-18T16:44:35.702Z,3.47
2023-03-18T16:45:37.904Z,3.48
2023-03-18T16:46:44.066Z,3.47
2023-03-18T16:47:52.358Z,3.40
2023-03-18T16:48:55.511Z,3.45
2023-03-18T16:49:58.529Z,3.39
2023-03-18T16:51:02.568Z,3.39
2023-03-18T16:52:07.428Z,3.36
2023-03-18T16:53:19.448Z,3.36
2023-03-18T16:54:23.175Z,3.36
2023-03-18T16:55:26.956Z,3.37
2023-03-18T16:56:29.531Z,3.35
2023-03-18T17:00:55.628Z,3.29
2023-03-18T17:06:37.842Z,3.20
2023-03-18T17:24:37.167Z,2.92
2023-03-18T17:32:22.430Z,2.83
2023-03-18T17:37:33.398Z,2.80
2023-03-18T17:39:41.357Z,2.77
2023-03-18T18:26:24.473Z,2.19
2023-03-18T18:28:34.319Z,2.20
2023-03-18T20:02:52.430Z,1.03
2023-03-18T20:04:02.615Z,1.01
2023-03-18T20:05:19.688Z,1.01
2023-03-18T20:06:23.411Z,0.89
2023-03-18T20:07:33.459Z,0.92
2023-03-18T20:08:48.864Z,0.93
2023-03-18T20:10:02.362Z,0.93
2023-03-18T20:11:16.074Z,0.88
2023-03-18T20:12:43.840Z,0.89
2023-03-18T20:13:54.989Z,0.92
2023-03-18T20:15:18.590Z,0.86
2023-03-18T20:16:32.785Z,0.84
2023-03-18T20:17:45.827Z,0.85
2023-03-18T20:18:57.462Z,0.87
2023-03-18T22:56:45.934Z,-0.36